createdAt,value
2022-08-17T00:00:43.295Z,19.25
2022-08-17T00:03:35.886Z,19.25
2022-08-17T00:06:25.221Z,19.24
2022-08-17T00:09:10.508Z,19.23
2022-08-17T00:12:51.380Z,19.24
2022-08-17T00:15:12.066Z,19.20
2022-08-17T00:17:57.132Z,19.10
2022-08-17T00:20:42.414Z,19.14
2022-08-17T00:23:28.169Z,19.11
2022-08-17T00:26:14.414Z,19.03
2022-08-17T00:29:00.502Z,19.08
2022-08-17T00:31:45.600Z,19.04
2022-08-17T00:34:30.864Z,18.95
2022-08-17T00:37:16.959Z,19.02
2022-08-17T00:40:02.238Z,18.99
2022-08-17T00:42:49.559Z,18.95
2022-08-17T00:45:34.818Z,18.95
2022-08-17T00:48:29.017Z,18.94
2022-08-17T00:51:25.903Z,18.88
2022-08-17T00:54:10.846Z,18.82
2022-08-17T00:57:04.826Z,18.69
2022-08-17T01:00:01.813Z,18.80
2022-08-17T01:02:48.967Z,18.82
2022-08-17T01:05:38.351Z,18.80
2022-08-17T01:08:31.083Z,18.71
2022-08-17T01:11:17.179Z,18.69
2022-08-17T01:14:03.150Z,18.68
2022-08-17T01:16:50.602Z,18.62
2022-08-17T01:19:40.074Z,18.55
2022-08-17T01:22:25.578Z,18.42
2022-08-17T01:25:12.545Z,18.41
2022-08-17T01:27:57.602Z,18.36
2022-08-17T01:30:57.437Z,18.30
2022-08-17T01:33:44.495Z,18.23
2022-08-17T01:36:30.436Z,18.25
2022-08-17T01:39:30.693Z,18.19
2022-08-17T01:42:24.840Z,18.15
2022-08-17T01:45:20.724Z,18.11
2022-08-17T01:48:05.852Z,18.16
2022-08-17T01:50:51.960Z,18.12
2022-08-17T01:53:40.646Z,18.13
2022-08-17T01:56:27.905Z,18.07
2022-08-17T01:59:13.570Z,17.99
2022-08-17T02:02:00.777Z,18.04
2022-08-17T02:04:45.943Z,18.03
2022-08-17T02:07:30.855Z,18.07
2022-08-17T02:10:20.099Z,18.05
2022-08-17T02:13:05.865Z,18.09
2022-08-17T02:15:51.125Z,18.12
2022-08-17T02:18:36.469Z,18.07
2022-08-17T02:21:21.594Z,18.02
2022-08-17T02:24:10.836Z,17.95
2022-08-17T02:26:56.068Z,17.89
2022-08-17T02:29:41.050Z,17.90
2022-08-17T02:32:28.256Z,17.87
2022-08-17T02:35:14.471Z,17.84
2022-08-17T02:38:06.297Z,17.85
2022-08-17T02:40:51.825Z,17.79
2022-08-17T02:43:37.094Z,17.75
2022-08-17T02:46:22.640Z,17.61
2022-08-17T02:49:07.618Z,17.52
2022-08-17T02:51:52.575Z,17.48
2022-08-17T02:54:39.854Z,17.35
2022-08-17T02:57:27.044Z,17.37
2022-08-17T03:00:17.638Z,17.31
2022-08-17T03:03:05.553Z,17.16
2022-08-17T03:05:53.991Z,17.16
2022-08-17T03:08:39.113Z,17.13
2022-08-17T03:11:24.386Z,17.09
2022-08-17T03:14:09.659Z,17.03
2022-08-17T03:16:54.878Z,16.98
2022-08-17T03:19:42.902Z,16.99
2022-08-17T03:22:36.842Z,17.01
2022-08-17T03:25:27.457Z,17.01
2022-08-17T03:28:13.758Z,17.03
2022-08-17T03:30:59.046Z,16.97
2022-08-17T03:33:44.646Z,17.01
2022-08-17T03:36:29.791Z,17.02
2022-08-17T03:39:20.938Z,17.10
2022-08-17T03:42:32.564Z,17.16
2022-08-17T03:45:42.714Z,17.16
2022-08-17T03:48:47.186Z,17.15
2022-08-17T03:51:50.925Z,17.18
2022-08-17T03:54:55.122Z,17.20
2022-08-17T03:57:40.545Z,17.09
2022-08-17T04:00:27.686Z,17.09
2022-08-17T04:03:13.859Z,17.05
2022-08-17T04:06:00.299Z,16.96
2022-08-17T04:08:45.687Z,16.84
2022-08-17T04:11:30.934Z,16.75
2022-08-17T04:14:16.278Z,16.82
2022-08-17T04:17:01.519Z,16.83
2022-08-17T04:19:46.979Z,16.87
2022-08-17T04:22:34.328Z,16.84
2022-08-17T04:25:19.451Z,16.69
2022-08-17T04:28:15.521Z,16.75
2022-08-17T04:31:01.518Z,16.78
2022-08-17T04:33:46.945Z,16.73
2022-08-17T04:36:32.233Z,16.71
2022-08-17T04:39:17.485Z,16.68
2022-08-17T04:42:16.938Z,16.61
2022-08-17T04:45:04.475Z,16.56
2022-08-17T04:47:49.605Z,16.54
2022-08-17T04:50:36.274Z,16.54
2022-08-17T04:53:21.737Z,16.51
2022-08-17T04:56:07.902Z,16.48
2022-08-17T04:59:00.865Z,16.32
2022-08-17T05:01:50.913Z,16.41
2022-08-17T05:04:36.118Z,16.43
2022-08-17T05:07:24.605Z,16.47
2022-08-17T05:10:11.293Z,16.39
2022-08-17T05:13:02.009Z,16.55
2022-08-17T05:15:49.082Z,16.57
2022-08-17T05:18:34.799Z,16.61
2022-08-17T05:21:21.642Z,16.62
2022-08-17T05:24:09.671Z,16.55
2022-08-17T05:27:14.331Z,16.42
2022-08-17T05:30:04.545Z,16.40
2022-08-17T05:32:57.069Z,16.38
2022-08-17T05:35:46.913Z,16.36
2022-08-17T05:38:32.116Z,16.27
2022-08-17T05:41:17.212Z,16.21
2022-08-17T05:44:05.212Z,16.17
2022-08-17T05:46:53.201Z,16.14
2022-08-17T05:49:38.678Z,16.21
2022-08-17T05:52:41.414Z,16.27
2022-08-17T05:55:35.598Z,16.26
2022-08-17T05:58:52.804Z,16.29
2022-08-17T06:01:51.431Z,16.20
2022-08-17T06:05:03.382Z,16.32
2022-08-17T06:08:00.799Z,16.36
2022-08-17T06:11:20.107Z,16.46
2022-08-17T06:14:07.930Z,16.58
2022-08-17T06:16:59.974Z,16.68
2022-08-17T06:19:48.164Z,16.80
2022-08-17T06:22:37.894Z,16.81
2022-08-17T06:25:34.757Z,16.92
2022-08-17T06:28:34.297Z,17.02
2022-08-17T06:31:28.021Z,17.11
2022-08-17T06:34:13.577Z,17.16
2022-08-17T06:37:18.995Z,17.21
2022-08-17T06:40:22.830Z,17.28
2022-08-17T06:43:40.191Z,17.35
2022-08-17T06:46:36.159Z,17.45
2022-08-17T06:49:40.525Z,17.55
2022-08-17T06:52:43.387Z,17.67
2022-08-17T06:55:50.178Z,17.77
2022-08-17T06:58:40.129Z,17.91
2022-08-17T07:01:33.325Z,17.95
2022-08-17T07:04:23.809Z,18.08
2022-08-17T07:07:28.989Z,18.13
2022-08-17T07:10:14.757Z,18.32
2022-08-17T07:13:13.936Z,18.35
2022-08-17T07:16:07.682Z,18.47
2022-08-17T07:18:54.791Z,18.55
2022-08-17T07:21:52.150Z,18.62
2022-08-17T07:25:06.490Z,18.76
2022-08-17T07:27:55.790Z,18.82
2022-08-17T07:30:49.186Z,18.85
2022-08-17T07:33:36.811Z,18.98
2022-08-17T07:36:30.095Z,19.05
2022-08-17T07:39:27.714Z,19.09
2022-08-17T07:42:12.707Z,19.15
2022-08-17T07:44:58.079Z,19.23
2022-08-17T07:48:09.050Z,19.34
2022-08-17T07:50:54.460Z,19.44
2022-08-17T07:53:39.799Z,19.51
2022-08-17T07:56:45.252Z,19.76
2022-08-17T07:59:33.452Z,19.81
2022-08-17T08:02:26.459Z,19.90
2022-08-17T08:05:50.243Z,20.11
2022-08-17T08:08:50.413Z,20.25
2022-08-17T08:11:39.266Z,20.42
2022-08-17T08:14:33.926Z,20.57
2022-08-17T08:17:23.893Z,20.80
2022-08-17T08:20:51.106Z,20.92
2022-08-17T08:23:44.118Z,21.10
2022-08-17T08:26:55.469Z,21.19
2022-08-17T08:29:52.674Z,21.09
2022-08-17T08:33:07.549Z,21.01
2022-08-17T08:37:14.049Z,20.95
2022-08-17T08:39:32.564Z,21.07
2022-08-17T08:42:37.178Z,21.23
2022-08-17T08:45:46.772Z,21.14
2022-08-17T08:49:06.472Z,21.24
2022-08-17T08:52:02.577Z,21.22
2022-08-17T08:54:53.923Z,21.20
2022-08-17T08:58:32.198Z,21.21
2022-08-17T09:01:48.267Z,21.28
2022-08-17T09:05:14.232Z,21.27
2022-08-17T09:08:21.354Z,21.25
2022-08-17T09:11:18.284Z,21.20
2022-08-17T09:14:28.223Z,21.26
2022-08-17T09:17:20.612Z,21.39
2022-08-17T09:20:27.614Z,21.44
2022-08-17T09:23:19.593Z,21.56
2022-08-17T09:26:25.486Z,21.70
2022-08-17T09:29:14.218Z,21.80
2022-08-17T09:32:04.571Z,21.83
2022-08-17T09:35:01.480Z,21.90
2022-08-17T09:38:00.479Z,21.95
2022-08-17T09:40:48.859Z,21.92
2022-08-17T09:43:48.964Z,21.90
2022-08-17T09:46:44.015Z,21.79
2022-08-17T09:49:38.200Z,21.94
2022-08-17T09:52:27.187Z,22.04
2022-08-17T09:55:12.166Z,22.12
2022-08-17T09:58:16.880Z,22.30
2022-08-17T10:01:31.375Z,22.32
2022-08-17T10:04:38.763Z,22.22
2022-08-17T10:07:40.522Z,22.14
2022-08-17T10:10:32.495Z,22.13
2022-08-17T10:13:53.167Z,22.22
2022-08-17T10:16:50.000Z,22.34
2022-08-17T10:19:46.992Z,22.52
2022-08-17T10:23:01.128Z,22.65
2022-08-17T10:26:09.199Z,22.65
2022-08-17T10:29:01.835Z,22.75
2022-08-17T10:32:10.738Z,22.71
2022-08-17T10:35:10.762Z,22.67
2022-08-17T10:38:14.645Z,22.70
2022-08-17T10:41:24.082Z,22.79
2022-08-17T10:44:39.557Z,22.95
2022-08-17T10:47:17.304Z,23.00
2022-08-17T10:50:40.635Z,23.01
2022-08-17T10:53:31.810Z,23.05
2022-08-17T10:56:21.676Z,23.08
2022-08-17T10:59:07.791Z,23.23
2022-08-17T11:02:04.170Z,23.41
2022-08-17T11:04:57.220Z,23.56
2022-08-17T11:07:43.757Z,23.71
2022-08-17T11:10:53.785Z,23.96
2022-08-17T11:13:44.867Z,23.98
2022-08-17T11:16:49.738Z,23.86
2022-08-17T11:20:04.852Z,23.73
2022-08-17T11:23:05.109Z,23.55
2022-08-17T11:26:04.101Z,23.64
2022-08-17T11:28:52.648Z,23.96
2022-08-17T11:31:46.484Z,23.91
2022-08-17T11:34:34.926Z,23.87
2022-08-17T11:37:20.246Z,23.76
2022-08-17T11:40:58.989Z,23.74
2022-08-17T11:43:56.285Z,23.68
2022-08-17T11:47:26.166Z,23.61
2022-08-17T11:50:49.762Z,23.62
2022-08-17T11:53:37.977Z,23.63
2022-08-17T11:56:36.061Z,23.61
2022-08-17T11:59:32.787Z,23.50
2022-08-17T12:02:32.897Z,23.37
2022-08-17T12:05:18.065Z,23.43
2022-08-17T12:08:08.175Z,23.48
2022-08-17T12:10:53.317Z,23.45
2022-08-17T12:13:50.090Z,23.40
2022-08-17T12:16:35.193Z,23.51
2022-08-17T12:19:21.647Z,23.51
2022-08-17T12:22:12.733Z,23.55
2022-08-17T12:25:04.874Z,23.55
2022-08-17T12:28:06.352Z,23.51
2022-08-17T12:30:53.244Z,23.44
2022-08-17T12:33:43.750Z,23.37
2022-08-17T12:36:29.326Z,23.34
2022-08-17T12:39:21.326Z,23.40
2022-08-17T12:42:25.455Z,23.25
2022-08-17T12:45:32.561Z,23.31
2022-08-17T12:48:26.349Z,23.32
2022-08-17T12:51:12.680Z,23.25
2022-08-17T12:53:57.931Z,23.21
2022-08-17T12:56:46.002Z,23.13
2022-08-17T12:59:33.238Z,23.25
2022-08-17T13:02:38.696Z,23.26
2022-08-17T13:05:42.199Z,23.24
2022-08-17T13:08:32.668Z,23.16
2022-08-17T13:11:24.775Z,23.03
2022-08-17T13:14:10.598Z,23.06
2022-08-17T13:17:01.511Z,23.09
2022-08-17T13:19:50.938Z,23.01
2022-08-17T13:22:36.097Z,23.01
2022-08-17T13:25:21.597Z,22.95
2022-08-17T13:28:18.540Z,22.88
2022-08-17T13:31:32.261Z,22.34
2022-08-17T13:34:16.985Z,21.76
2022-08-17T13:37:34.580Z,21.35
2022-08-17T13:40:19.533Z,21.24
2022-08-17T13:43:05.037Z,21.09
2022-08-17T13:45:52.197Z,20.98
2022-08-17T13:48:37.638Z,20.72
2022-08-17T13:51:29.942Z,20.62
2022-08-17T13:54:21.074Z,20.70
2022-08-17T13:57:11.991Z,20.63
2022-08-17T14:00:11.984Z,20.63
2022-08-17T14:02:58.761Z,20.58
2022-08-17T14:05:45.936Z,20.54
2022-08-17T14:08:31.207Z,20.33
2022-08-17T14:11:17.575Z,20.27
2022-08-17T14:14:03.977Z,20.07
2022-08-17T14:16:49.918Z,19.98
2022-08-17T14:19:36.143Z,19.81
2022-08-17T14:22:26.931Z,19.57
2022-08-17T14:25:15.128Z,19.47
2022-08-17T14:28:00.492Z,19.45
2022-08-17T14:30:46.319Z,19.36
2022-08-17T14:33:31.491Z,19.52
2022-08-17T14:36:16.640Z,19.44
2022-08-17T14:39:01.814Z,19.55
2022-08-17T14:41:47.489Z,19.56
2022-08-17T14:44:32.570Z,19.69
2022-08-17T14:47:17.794Z,19.56
2022-08-17T14:50:04.704Z,19.51
2022-08-17T14:52:55.804Z,19.48
2022-08-17T14:55:45.719Z,19.54
2022-08-17T14:58:32.542Z,19.56
2022-08-17T15:01:19.973Z,19.47
2022-08-17T15:04:05.792Z,19.49
2022-08-17T15:06:50.894Z,19.47
2022-08-17T15:09:35.830Z,19.44
2022-08-17T15:12:25.601Z,19.46
2022-08-17T15:15:17.273Z,19.49
2022-08-17T15:18:03.293Z,19.49
2022-08-17T15:20:50.080Z,19.50
2022-08-17T15:23:35.272Z,19.50
2022-08-17T15:26:26.055Z,19.52
2022-08-17T15:29:11.789Z,19.52
2022-08-17T15:32:00.586Z,19.39
2022-08-17T15:34:46.064Z,19.42
2022-08-17T15:37:32.085Z,19.45
2022-08-17T15:40:17.499Z,19.39
2022-08-17T15:43:11.450Z,19.26
2022-08-17T15:46:00.657Z,19.12
2022-08-17T15:48:49.079Z,18.96
2022-08-17T15:51:35.630Z,18.92
2022-08-17T15:54:22.707Z,18.87
2022-08-17T15:57:08.603Z,18.84
2022-08-17T15:59:58.558Z,18.80
2022-08-17T16:03:14.331Z,18.90
2022-08-17T16:05:50.132Z,18.87
2022-08-17T16:08:37.619Z,18.88
2022-08-17T16:11:23.038Z,18.88
2022-08-17T16:14:08.229Z,18.88
2022-08-17T16:16:53.553Z,18.85
2022-08-17T16:19:40.980Z,18.89
2022-08-17T16:22:38.778Z,18.89
2022-08-17T16:25:52.471Z,18.93
2022-08-17T16:28:36.226Z,19.02
2022-08-17T16:31:21.774Z,18.99
2022-08-17T16:34:17.503Z,19.00
2022-08-17T16:37:04.385Z,18.99
2022-08-17T16:39:49.808Z,19.00
2022-08-17T16:42:37.045Z,19.00
2022-08-17T16:45:28.053Z,19.01
2022-08-17T16:48:15.286Z,19.14
2022-08-17T16:51:04.160Z,19.16
2022-08-17T16:53:59.166Z,19.14
2022-08-17T16:56:44.549Z,19.22
2022-08-17T16:59:41.968Z,19.26
2022-08-17T17:02:34.045Z,19.30
2022-08-17T17:05:43.417Z,19.25
2022-08-17T17:08:40.686Z,19.28
2022-08-17T17:11:43.463Z,19.14
2022-08-17T17:14:42.952Z,19.24
2022-08-17T17:17:32.574Z,19.19
2022-08-17T17:20:19.192Z,19.14
2022-08-17T17:23:06.923Z,19.19
2022-08-17T17:26:20.887Z,19.19
2022-08-17T17:29:16.238Z,19.18
2022-08-17T17:32:01.382Z,19.26
2022-08-17T17:34:53.281Z,19.27
2022-08-17T17:37:42.762Z,19.18
2022-08-17T17:40:40.273Z,19.26
2022-08-17T17:43:38.916Z,19.25
2022-08-17T17:46:35.238Z,19.23
2022-08-17T17:49:20.915Z,19.10
2022-08-17T17:52:29.591Z,19.20
2022-08-17T17:55:26.939Z,19.19
2022-08-17T17:58:19.610Z,19.15
2022-08-17T18:01:18.653Z,19.10
2022-08-17T18:04:37.943Z,19.03
2022-08-17T18:07:32.399Z,18.97
2022-08-17T18:10:29.497Z,18.93
2022-08-17T18:13:37.952Z,18.91
2022-08-17T18:16:23.370Z,18.95
2022-08-17T18:19:20.594Z,18.94
2022-08-17T18:22:19.701Z,18.86
2022-08-17T18:25:39.880Z,18.91
2022-08-17T18:28:30.112Z,18.82
2022-08-17T18:31:15.075Z,18.85
2022-08-17T18:34:46.040Z,18.78
2022-08-17T18:37:34.411Z,18.74
2022-08-17T18:40:19.943Z,18.72
2022-08-17T18:43:13.419Z,18.73
2022-08-17T18:46:37.693Z,18.70
2022-08-17T18:49:28.476Z,18.64
2022-08-17T18:52:29.083Z,18.58
2022-08-17T18:55:23.508Z,18.51
2022-08-17T18:58:24.466Z,18.56
2022-08-17T19:01:20.690Z,18.52
2022-08-17T19:04:15.087Z,18.49
2022-08-17T19:07:11.486Z,18.49
2022-08-17T19:10:06.958Z,18.36
2022-08-17T19:13:00.648Z,18.35
2022-08-17T19:16:12.080Z,18.30
2022-08-17T19:19:14.455Z,18.24
2022-08-17T19:22:30.659Z,18.23
2022-08-17T19:25:27.121Z,18.27
2022-08-17T19:28:32.913Z,18.22
2022-08-17T19:31:22.202Z,18.06
2022-08-17T19:34:07.433Z,18.04
2022-08-17T19:37:16.911Z,18.01
2022-08-17T19:40:48.765Z,17.96
2022-08-17T19:43:42.903Z,17.82
2022-08-17T19:46:58.442Z,17.87
2022-08-17T19:50:08.714Z,17.89
2022-08-17T19:53:07.283Z,17.80
2022-08-17T19:56:07.086Z,17.73
2022-08-17T19:58:58.119Z,17.68
2022-08-17T20:01:52.753Z,17.63
2022-08-17T20:04:42.933Z,17.61
2022-08-17T20:07:40.062Z,17.60
2022-08-17T20:10:47.310Z,17.61
2022-08-17T20:14:09.493Z,17.70
2022-08-17T20:16:59.289Z,17.71
2022-08-17T20:19:53.207Z,17.68
2022-08-17T20:22:54.793Z,17.58
2022-08-17T20:25:51.989Z,17.54
2022-08-17T20:28:39.038Z,17.56
2022-08-17T20:31:44.632Z,17.58
2022-08-17T20:34:39.626Z,17.59
2022-08-17T20:37:33.966Z,17.58
2022-08-17T20:40:26.385Z,17.58
2022-08-17T20:43:29.794Z,17.53
2022-08-17T20:46:23.908Z,17.47
2022-08-17T20:49:08.833Z,17.41
2022-08-17T20:52:08.888Z,17.38
2022-08-17T20:54:54.989Z,17.34
2022-08-17T20:57:40.061Z,17.36
2022-08-17T21:00:28.023Z,17.42
2022-08-17T21:03:50.516Z,17.42
2022-08-17T21:07:22.407Z,17.37
2022-08-17T21:10:13.890Z,17.35
2022-08-17T21:13:04.374Z,17.33
2022-08-17T21:15:53.113Z,17.39
2022-08-17T21:19:00.019Z,17.37
2022-08-17T21:21:46.517Z,17.39
2022-08-17T21:24:45.392Z,17.42
2022-08-17T21:27:30.614Z,17.46
2022-08-17T21:30:47.445Z,17.42
2022-08-17T21:33:34.116Z,17.48
2022-08-17T21:36:25.532Z,17.46
2022-08-17T21:39:39.520Z,17.53
2022-08-17T21:42:29.535Z,17.53
2022-08-17T21:45:20.623Z,17.46
2022-08-17T21:48:16.469Z,17.40
2022-08-17T21:51:14.433Z,17.34
2022-08-17T21:54:03.740Z,17.29
2022-08-17T21:56:49.117Z,17.30
2022-08-17T21:59:38.743Z,17.26
2022-08-17T22:02:28.275Z,17.18
2022-08-17T22:05:15.276Z,17.13
2022-08-17T22:08:16.548Z,17.09
2022-08-17T22:11:02.436Z,17.11
2022-08-17T22:13:47.317Z,17.10
2022-08-17T22:16:34.786Z,16.98
2022-08-17T22:19:21.079Z,16.99
2022-08-17T22:22:09.654Z,16.92
2022-08-17T22:24:57.944Z,16.91
2022-08-17T22:27:45.678Z,16.91
2022-08-17T22:30:32.830Z,16.97
2022-08-17T22:33:33.311Z,17.06
2022-08-17T22:36:38.723Z,17.09
2022-08-17T22:39:23.789Z,17.13
2022-08-17T22:42:14.500Z,17.17
2022-08-17T22:45:00.304Z,17.21
2022-08-17T22:47:48.787Z,17.26
2022-08-17T22:50:34.216Z,17.26
2022-08-17T22:53:41.351Z,17.28
2022-08-17T22:56:45.211Z,17.30
2022-08-17T22:59:57.494Z,17.35
2022-08-17T23:03:09.083Z,17.38
2022-08-17T23:06:08.065Z,17.35
2022-08-17T23:08:57.929Z,17.26
2022-08-17T23:11:49.970Z,17.24
2022-08-17T23:14:39.184Z,17.37
2022-08-17T23:17:24.411Z,17.32
2022-08-17T23:20:12.957Z,17.24
2022-08-17T23:22:59.586Z,17.23
2022-08-17T23:25:46.251Z,17.30
2022-08-17T23:28:31.194Z,17.33
2022-08-17T23:31:19.859Z,17.35
2022-08-17T23:34:15.080Z,17.30
2022-08-17T23:37:02.252Z,17.35
2022-08-17T23:39:47.371Z,17.40
2022-08-17T23:42:33.644Z,17.43
2022-08-17T23:45:20.059Z,17.41
2022-08-17T23:48:07.812Z,17.45
2022-08-17T23:50:54.362Z,17.47
2022-08-17T23:53:45.132Z,17.48
2022-08-17T23:56:33.378Z,17.50
2022-08-17T23:59:20.467Z,17.46
